sensor_id;sensor_type;location;lat;lon;timestamp;P1;durP1;ratioP1;P2;durP2;ratioP2
49900;SDS011;35789;48.414;12.768;2023-03-01T00:00:00;10.0;;;4.4;;
49900;SDS011;35789;48.414;12.768;2023-03-01T00:05:00;8.9;;;4.0;;
49900;SDS011;35789;48.414;12.768;2023-03-01T00:10:00;8.9;;;4.0;;
49900;SDS011;35789;48.414;12.768;2023-03-01T00:15:00;8.9;;;4.0;;
49900;SDS011;35789;48.414;12.768;2023-03-01T00:20:00;8.9;;;4.0;;
49900;SDS011;35789;48.414;12.768;2023-03-01T00:25:00;8.9;;;4.0;;
49900;SDS011;35789;48.414;12.768;2023-03-01T00:30:00;8.9;;;4.0;;
49900;SDS011;35789;48.414;12.768;2023-03-01T00:35:00;9.3;;;4.7;;
49900;SDS011;35789;48.414;12.768;2023-03-01T00:40:00;9.3;;;4.7;;
49900;SDS011;35789;48.414;12.768;2023-03-01T00:45:00;9.3;;;4.7;;
49900;SDS011;35789;48.414;12.768;2023-03-01T00:50:00;9.3;;;4.7;;
49900;SDS011;35789;48.414;12.768;2023-03-01T00:55:00;9.3;;;4.7;;
49900;SDS011;35789;48.414;12.768;2023-03-01T01:00:00;9.3;;;4.7;;
49900;SDS011;35789;48.414;12.768;2023-03-01T01:05:00;8.9;;;4.5;;
49900;SDS011;35789;48.414;12.768;2023-03-01T01:10:01;8.9;;;4.5;;
49900;SDS011;35789;48.414;12.768;2023-03-01T01:15:00;8.9;;;4.5;;
49900;SDS011;35789;48.414;12.768;2023-03-01T01:20:00;8.9;;;4.5;;
49900;SDS011;35789;48.414;12.768;2023-03-01T01:25:00;8.9;;;4.5;;
49900;SDS011;35789;48.414;12.768;2023-03-01T01:30:00;8.9;;;4.5;;
49900;SDS011;35789;48.414;12.768;2023-03-01T01:35:00;13.7;;;6.1;;
49900;SDS011;35789;48.414;12.768;2023-03-01T01:40:02;13.7;;;6.1;;
49900;SDS011;35789;48.414;12.768;2023-03-01T01:50:01;13.7;;;6.1;;
49900;SDS011;35789;48.414;12.768;2023-03-01T01:55:04;13.7;;;6.1;;
49900;SDS011;35789;48.414;12.768;2023-03-01T02:00:05;13.7;;;6.1;;
49900;SDS011;35789;48.414;12.768;2023-03-01T02:05:06;10.9;;;4.8;;
49900;SDS011;35789;48.414;12.768;2023-03-01T02:10:00;10.9;;;4.8;;
49900;SDS011;35789;48.414;12.768;2023-03-01T02:15:00;10.9;;;4.8;;
49900;SDS011;35789;48.414;12.768;2023-03-01T02:20:09;10.9;;;4.8;;
49900;SDS011;35789;48.414;12.768;2023-03-01T02:25:10;10.9;;;4.8;;
49900;SDS011;35789;48.414;12.768;2023-03-01T02:30:00;10.9;;;4.8;;
49900;SDS011;35789;48.414;12.768;2023-03-01T02:35:01;9.6;;;4.7;;
49900;SDS011;35789;48.414;12.768;2023-03-01T02:40:05;9.6;;;4.7;;
49900;SDS011;35789;48.414;12.768;2023-03-01T02:45:00;9.6;;;4.7;;
49900;SDS011;35789;48.414;12.768;2023-03-01T02:50:00;unavailable;;;unavailable;;
49900;SDS011;35789;48.414;12.768;2023-03-01T02:55:03;9.6;;;4.7;;
49900;SDS011;35789;48.414;12.768;2023-03-01T03:00:05;9.6;;;4.7;;
49900;SDS011;35789;48.414;12.768;2023-03-01T03:05:00;9.2;;;4.7;;
49900;SDS011;35789;48.414;12.768;2023-03-01T03:10:01;9.2;;;4.7;;
49900;SDS011;35789;48.414;12.768;2023-03-01T03:15:00;9.2;;;4.7;;
49900;SDS011;35789;48.414;12.768;2023-03-01T03:20:00;9.2;;;4.7;;
49900;SDS011;35789;48.414;12.768;2023-03-01T03:25:00;9.2;;;4.7;;
49900;SDS011;35789;48.414;12.768;2023-03-01T03:30:00;9.2;;;4.7;;
49900;SDS011;35789;48.414;12.768;2023-03-01T03:35:00;10.4;;;5.2;;
49900;SDS011;35789;48.414;12.768;2023-03-01T03:40:00;10.4;;;5.2;;
49900;SDS011;35789;48.414;12.768;2023-03-01T03:45:00;10.4;;;5.2;;
49900;SDS011;35789;48.414;12.768;2023-03-01T03:50:00;10.4;;;5.2;;
49900;SDS011;35789;48.414;12.768;2023-03-01T03:55:00;10.4;;;5.2;;
49900;SDS011;35789;48.414;12.768;2023-03-01T04:00:00;10.4;;;5.2;;
49900;SDS011;35789;48.414;12.768;2023-03-01T04:05:00;13.8;;;6.2;;
49900;SDS011;35789;48.414;12.768;2023-03-01T04:10:00;13.8;;;6.2;;
49900;SDS011;35789;48.414;12.768;2023-03-01T04:15:00;13.8;;;6.2;;
49900;SDS011;35789;48.414;12.768;2023-03-01T04:20:00;13.8;;;6.2;;
49900;SDS011;35789;48.414;12.768;2023-03-01T04:25:00;13.8;;;6.2;;
49900;SDS011;35789;48.414;12.768;2023-03-01T04:30:01;13.8;;;6.2;;
49900;SDS011;35789;48.414;12.768;2023-03-01T04:35:00;10.1;;;4.9;;
49900;SDS011;35789;48.414;12.768;2023-03-01T04:40:00;10.1;;;4.9;;
49900;SDS011;35789;48.414;12.768;2023-03-01T04:45:00;10.1;;;4.9;;
49900;SDS011;35789;48.414;12.768;2023-03-01T04:50:00;10.1;;;4.9;;
49900;SDS011;35789;48.414;12.768;2023-03-01T04:55:00;10.1;;;4.9;;
49900;SDS011;35789;48.414;12.768;2023-03-01T05:00:00;11.0;;;5.2;;
49900;SDS011;35789;48.414;12.768;2023-03-01T05:05:00;11.0;;;5.2;;
49900;SDS011;35789;48.414;12.768;2023-03-01T05:10:00;11.0;;;5.2;;
49900;SDS011;35789;48.414;12.768;2023-03-01T05:15:00;11.0;;;5.2;;
49900;SDS011;35789;48.414;12.768;2023-03-01T05:20:00;11.0;;;5.2;;
49900;SDS011;35789;48.414;12.768;2023-03-01T05:25:00;11.0;;;5.2;;
49900;SDS011;35789;48.414;12.768;2023-03-01T05:30:00;14.5;;;5.5;;
49900;SDS011;35789;48.414;12.768;2023-03-01T05:35:00;14.5;;;5.5;;
49900;SDS011;35789;48.414;12.768;2023-03-01T05:40:00;14.5;;;5.5;;
49900;SDS011;35789;48.414;12.768;2023-03-01T05:45:00;14.5;;;5.5;;
49900;SDS011;35789;48.414;12.768;2023-03-01T05:50:00;14.5;;;5.5;;
49900;SDS011;35789;48.414;12.768;2023-03-01T05:55:00;14.5;;;5.5;;
49900;SDS011;35789;48.414;12.768;2023-03-01T06:00:01;12.4;;;6.2;;
49900;SDS011;35789;48.414;12.768;2023-03-01T06:05:00;12.4;;;6.2;;
49900;SDS011;35789;48.414;12.768;2023-03-01T06:10:01;12.4;;;6.2;;
49900;SDS011;35789;48.414;12.768;2023-03-01T06:15:01;12.4;;;6.2;;
49900;SDS011;35789;48.414;12.768;2023-03-01T06:20:00;12.4;;;6.2;;
49900;SDS011;35789;48.414;12.768;2023-03-01T06:25:00;12.4;;;6.2;;
49900;SDS011;35789;48.414;12.768;2023-03-01T06:30:00;12.4;;;5.5;;
49900;SDS011;35789;48.414;12.768;2023-03-01T06:35:00;12.4;;;5.5;;
49900;SDS011;35789;48.414;12.768;2023-03-01T06:40:00;12.4;;;5.5;;
49900;SDS011;35789;48.414;12.768;2023-03-01T06:45:04;12.4;;;5.5;;
49900;SDS011;35789;48.414;12.768;2023-03-01T06:50:01;12.4;;;5.5;;
49900;SDS011;35789;48.414;12.768;2023-03-01T06:55:00;12.4;;;5.5;;
49900;SDS011;35789;48.414;12.768;2023-03-01T07:00:00;14.1;;;6.3;;
49900;SDS011;35789;48.414;12.768;2023-03-01T07:05:00;14.1;;;6.3;;
49900;SDS011;35789;48.414;12.768;2023-03-01T07:10:00;14.1;;;6.3;;
49900;SDS011;35789;48.414;12.768;2023-03-01T07:15:00;14.1;;;6.3;;
49900;SDS011;35789;48.414;12.768;2023-03-01T07:20:00;14.1;;;6.3;;
49900;SDS011;35789;48.414;12.768;2023-03-01T07:25:00;14.1;;;6.3;;
49900;SDS011;35789;48.414;12.768;2023-03-01T07:30:00;14.8;;;6.5;;
49900;SDS011;35789;48.414;12.768;2023-03-01T07:35:00;14.8;;;6.5;;
49900;SDS011;35789;48.414;12.768;2023-03-01T07:40:00;14.8;;;6.5;;
49900;SDS011;35789;48.414;12.768;2023-03-01T07:45:00;14.8;;;6.5;;
49900;SDS011;35789;48.414;12.768;2023-03-01T07:50:00;14.8;;;6.5;;
49900;SDS011;35789;48.414;12.768;2023-03-01T07:55:00;14.8;;;6.5;;
49900;SDS011;35789;48.414;12.768;2023-03-01T08:00:00;12.5;;;6.3;;
49900;SDS011;35789;48.414;12.768;2023-03-01T08:05:00;12.5;;;6.3;;
49900;SDS011;35789;48.414;12.768;2023-03-01T08:10:00;12.5;;;6.3;;
49900;SDS011;35789;48.414;12.768;2023-03-01T08:15:00;12.5;;;6.3;;
49900;SDS011;35789;48.414;12.768;2023-03-01T08:20:00;12.5;;;6.3;;
49900;SDS011;35789;48.414;12.768;2023-03-01T08:25:00;12.5;;;6.3;;
49900;SDS011;35789;48.414;12.768;2023-03-01T08:30:00;16.0;;;6.5;;
49900;SDS011;35789;48.414;12.768;2023-03-01T08:35:00;16.0;;;6.5;;
49900;SDS011;35789;48.414;12.768;2023-03-01T08:40:00;16.0;;;6.5;;
49900;SDS011;35789;48.414;12.768;2023-03-01T08:45:00;16.0;;;6.5;;
49900;SDS011;35789;48.414;12.768;2023-03-01T08:50:00;16.0;;;6.5;;
49900;SDS011;35789;48.414;12.768;2023-03-01T08:55:00;16.0;;;6.5;;
49900;SDS011;35789;48.414;12.768;2023-03-01T09:00:00;12.8;;;5.9;;
49900;SDS011;35789;48.414;12.768;2023-03-01T09:05:00;12.8;;;5.9;;
49900;SDS011;35789;48.414;12.768;2023-03-01T09:10:00;12.8;;;5.9;;
49900;SDS011;35789;48.414;12.768;2023-03-01T09:15:00;12.8;;;5.9;;
49900;SDS011;35789;48.414;12.768;2023-03-01T09:20:00;12.8;;;5.9;;
49900;SDS011;35789;48.414;12.768;2023-03-01T09:25:00;12.8;;;5.9;;
49900;SDS011;35789;48.414;12.768;2023-03-01T09:30:00;13.7;;;6.9;;
49900;SDS011;35789;48.414;12.768;2023-03-01T09:35:00;13.7;;;6.9;;
49900;SDS011;35789;48.414;12.768;2023-03-01T09:40:01;13.7;;;6.9;;
49900;SDS011;35789;48.414;12.768;2023-03-01T09:45:04;13.7;;;6.9;;
49900;SDS011;35789;48.414;12.768;2023-03-01T09:50:05;13.7;;;6.9;;
49900;SDS011;35789;48.414;12.768;2023-03-01T09:55:01;13.7;;;6.9;;
49900;SDS011;35789;48.414;12.768;2023-03-01T10:00:10;10.9;;;5.4;;
49900;SDS011;35789;48.414;12.768;2023-03-01T10:05:09;10.9;;;5.4;;
49900;SDS011;35789;48.414;12.768;2023-03-01T10:10:00;10.9;;;5.4;;
49900;SDS011;35789;48.414;12.768;2023-03-01T10:15:05;10.9;;;5.4;;
49900;SDS011;35789;48.414;12.768;2023-03-01T10:20:14;10.9;;;5.4;;
49900;SDS011;35789;48.414;12.768;2023-03-01T10:25:02;10.9;;;5.4;;
49900;SDS011;35789;48.414;12.768;2023-03-01T10:30:07;11.6;;;6.4;;
49900;SDS011;35789;48.414;12.768;2023-03-01T10:35:00;11.6;;;6.4;;
49900;SDS011;35789;48.414;12.768;2023-03-01T10:40:05;11.6;;;6.4;;
49900;SDS011;35789;48.414;12.768;2023-03-01T10:50:02;11.6;;;6.4;;
49900;SDS011;35789;48.414;12.768;2023-03-01T10:55:04;11.6;;;6.4;;
49900;SDS011;35789;48.414;12.768;2023-03-01T11:00:09;14.5;;;6.4;;
49900;SDS011;35789;48.414;12.768;2023-03-01T11:05:03;14.5;;;6.4;;
49900;SDS011;35789;48.414;12.768;2023-03-01T11:10:11;14.5;;;6.4;;
49900;SDS011;35789;48.414;12.768;2023-03-01T11:15:00;14.5;;;6.4;;
49900;SDS011;35789;48.414;12.768;2023-03-01T11:20:05;14.5;;;6.4;;
49900;SDS011;35789;48.414;12.768;2023-03-01T11:25:01;14.5;;;6.4;;
49900;SDS011;35789;48.414;12.768;2023-03-01T11:30:04;11.1;;;5.4;;
49900;SDS011;35789;48.414;12.768;2023-03-01T11:35:05;11.1;;;5.4;;
49900;SDS011;35789;48.414;12.768;2023-03-01T11:40:05;11.1;;;5.4;;
49900;SDS011;35789;48.414;12.768;2023-03-01T11:45:08;11.1;;;5.4;;
49900;SDS011;35789;48.414;12.768;2023-03-01T11:50:11;11.1;;;5.4;;
49900;SDS011;35789;48.414;12.768;2023-03-01T11:55:13;11.1;;;5.4;;
49900;SDS011;35789;48.414;12.768;2023-03-01T12:00:14;10.2;;;4.5;;
49900;SDS011;35789;48.414;12.768;2023-03-01T12:10:17;10.2;;;4.5;;
49900;SDS011;35789;48.414;12.768;2023-03-01T12:15:17;10.2;;;4.5;;
49900;SDS011;35789;48.414;12.768;2023-03-01T12:20:12;10.2;;;4.5;;
49900;SDS011;35789;48.414;12.768;2023-03-01T12:25:13;10.2;;;4.5;;
49900;SDS011;35789;48.414;12.768;2023-03-01T12:30:15;8.1;;;3.8;;
49900;SDS011;35789;48.414;12.768;2023-03-01T12:35:09;8.1;;;3.8;;
49900;SDS011;35789;48.414;12.768;2023-03-01T12:40:14;8.1;;;3.8;;
49900;SDS011;35789;48.414;12.768;2023-03-01T12:45:16;8.1;;;3.8;;
49900;SDS011;35789;48.414;12.768;2023-03-01T12:50:02;8.1;;;3.8;;
49900;SDS011;35789;48.414;12.768;2023-03-01T12:55:02;8.1;;;3.8;;
49900;SDS011;35789;48.414;12.768;2023-03-01T13:00:10;10.8;;;5.1;;
49900;SDS011;35789;48.414;12.768;2023-03-01T13:05:14;10.8;;;5.1;;
49900;SDS011;35789;48.414;12.768;2023-03-01T13:10:11;10.8;;;5.1;;
49900;SDS011;35789;48.414;12.768;2023-03-01T13:15:00;10.8;;;5.1;;
49900;SDS011;35789;48.414;12.768;2023-03-01T13:20:00;10.8;;;5.1;;
49900;SDS011;35789;48.414;12.768;2023-03-01T13:25:10;10.8;;;5.1;;
49900;SDS011;35789;48.414;12.768;2023-03-01T13:30:00;8.1;;;3.7;;
49900;SDS011;35789;48.414;12.768;2023-03-01T13:35:01;8.1;;;3.7;;
49900;SDS011;35789;48.414;12.768;2023-03-01T13:40:56;8.1;;;3.7;;
49900;SDS011;35789;48.414;12.768;2023-03-01T13:45:01;8.1;;;3.7;;
49900;SDS011;35789;48.414;12.768;2023-03-01T13:50:02;8.1;;;3.7;;
49900;SDS011;35789;48.414;12.768;2023-03-01T13:55:00;8.1;;;3.7;;
49900;SDS011;35789;48.414;12.768;2023-03-01T14:00:00;6.4;;;2.9;;
49900;SDS011;35789;48.414;12.768;2023-03-01T14:05:01;6.4;;;2.9;;
49900;SDS011;35789;48.414;12.768;2023-03-01T14:10:03;6.4;;;2.9;;
49900;SDS011;35789;48.414;12.768;2023-03-01T14:15:02;6.4;;;2.9;;
49900;SDS011;35789;48.414;12.768;2023-03-01T14:20:03;6.4;;;2.9;;
49900;SDS011;35789;48.414;12.768;2023-03-01T14:25:03;6.4;;;2.9;;
49900;SDS011;35789;48.414;12.768;2023-03-01T14:30:02;8.8;;;2.5;;
49900;SDS011;35789;48.414;12.768;2023-03-01T14:35:00;8.8;;;2.5;;
49900;SDS011;35789;48.414;12.768;2023-03-01T14:40:03;8.8;;;2.5;;
49900;SDS011;35789;48.414;12.768;2023-03-01T14:45:01;8.8;;;2.5;;
49900;SDS011;35789;48.414;12.768;2023-03-01T14:50:04;8.8;;;2.5;;
49900;SDS011;35789;48.414;12.768;2023-03-01T14:55:02;8.8;;;2.5;;
49900;SDS011;35789;48.414;12.768;2023-03-01T15:00:03;7.3;;;2.3;;
49900;SDS011;35789;48.414;12.768;2023-03-01T15:05:03;7.3;;;2.3;;
49900;SDS011;35789;48.414;12.768;2023-03-01T15:10:01;7.3;;;2.3;;
49900;SDS011;35789;48.414;12.768;2023-03-01T15:15:01;7.3;;;2.3;;
49900;SDS011;35789;48.414;12.768;2023-03-01T15:20:02;7.3;;;2.3;;
49900;SDS011;35789;48.414;12.768;2023-03-01T15:25:00;7.3;;;2.3;;
49900;SDS011;35789;48.414;12.768;2023-03-01T15:30:02;5.9;;;2.5;;
49900;SDS011;35789;48.414;12.768;2023-03-01T15:40:00;5.9;;;2.5;;
49900;SDS011;35789;48.414;12.768;2023-03-01T15:45:09;5.9;;;2.5;;
49900;SDS011;35789;48.414;12.768;2023-03-01T15:50:00;5.9;;;2.5;;
49900;SDS011;35789;48.414;12.768;2023-03-01T15:55:03;5.9;;;2.5;;
49900;SDS011;35789;48.414;12.768;2023-03-01T16:00:00;7.5;;;2.7;;
49900;SDS011;35789;48.414;12.768;2023-03-01T16:05:00;7.5;;;2.7;;
49900;SDS011;35789;48.414;12.768;2023-03-01T16:10:00;7.5;;;2.7;;
49900;SDS011;35789;48.414;12.768;2023-03-01T16:15:00;7.5;;;2.7;;
49900;SDS011;35789;48.414;12.768;2023-03-01T16:20:00;7.5;;;2.7;;
49900;SDS011;35789;48.414;12.768;2023-03-01T16:25:00;7.5;;;2.4;;
49900;SDS011;35789;48.414;12.768;2023-03-01T16:30:00;7.2;;;2.4;;
49900;SDS011;35789;48.414;12.768;2023-03-01T16:35:00;7.2;;;2.4;;
49900;SDS011;35789;48.414;12.768;2023-03-01T16:40:00;7.2;;;2.4;;
49900;SDS011;35789;48.414;12.768;2023-03-01T16:45:00;7.2;;;2.4;;
49900;SDS011;35789;48.414;12.768;2023-03-01T16:50:01;7.2;;;2.4;;
49900;SDS011;35789;48.414;12.768;2023-03-01T16:55:02;7.7;;;3.2;;
49900;SDS011;35789;48.414;12.768;2023-03-01T17:00:00;7.7;;;3.2;;
49900;SDS011;35789;48.414;12.768;2023-03-01T17:05:01;7.7;;;3.2;;
49900;SDS011;35789;48.414;12.768;2023-03-01T17:10:01;7.7;;;3.2;;
49900;SDS011;35789;48.414;12.768;2023-03-01T17:15:00;7.7;;;3.2;;
49900;SDS011;35789;48.414;12.768;2023-03-01T17:20:00;7.7;;;3.2;;
49900;SDS011;35789;48.414;12.768;2023-03-01T17:25:00;13.1;;;4.6;;
49900;SDS011;35789;48.414;12.768;2023-03-01T17:30:00;13.1;;;4.6;;
49900;SDS011;35789;48.414;12.768;2023-03-01T17:35:00;13.1;;;4.6;;
49900;SDS011;35789;48.414;12.768;2023-03-01T17:40:00;13.1;;;4.6;;
49900;SDS011;35789;48.414;12.768;2023-03-01T17:45:00;13.1;;;4.6;;
49900;SDS011;35789;48.414;12.768;2023-03-01T17:50:00;13.1;;;4.6;;
49900;SDS011;35789;48.414;12.768;2023-03-01T17:55:00;12.0;;;5.2;;
49900;SDS011;35789;48.414;12.768;2023-03-01T18:00:00;12.0;;;5.2;;
49900;SDS011;35789;48.414;12.768;2023-03-01T18:05:00;12.0;;;5.2;;
49900;SDS011;35789;48.414;12.768;2023-03-01T18:10:00;12.0;;;5.2;;
49900;SDS011;35789;48.414;12.768;2023-03-01T18:15:00;12.0;;;5.2;;
49900;SDS011;35789;48.414;12.768;2023-03-01T18:20:00;12.0;;;5.2;;
49900;SDS011;35789;48.414;12.768;2023-03-01T18:25:00;10.0;;;4.2;;
49900;SDS011;35789;48.414;12.768;2023-03-01T18:30:00;10.0;;;4.2;;
49900;SDS011;35789;48.414;12.768;2023-03-01T18:35:00;10.0;;;4.2;;
49900;SDS011;35789;48.414;12.768;2023-03-01T18:40:00;10.0;;;4.2;;
49900;SDS011;35789;48.414;12.768;2023-03-01T18:45:00;10.0;;;4.2;;
49900;SDS011;35789;48.414;12.768;2023-03-01T18:50:00;10.0;;;4.2;;
49900;SDS011;35789;48.414;12.768;2023-03-01T18:55:00;10.4;;;4.5;;
49900;SDS011;35789;48.414;12.768;2023-03-01T19:00:00;10.4;;;4.5;;
49900;SDS011;35789;48.414;12.768;2023-03-01T19:05:00;10.4;;;4.5;;
49900;SDS011;35789;48.414;12.768;2023-03-01T19:10:00;10.4;;;4.5;;
49900;SDS011;35789;48.414;12.768;2023-03-01T19:15:00;10.4;;;4.5;;
49900;SDS011;35789;48.414;12.768;2023-03-01T19:20:00;10.4;;;4.5;;
49900;SDS011;35789;48.414;12.768;2023-03-01T19:25:00;8.4;;;3.8;;
49900;SDS011;35789;48.414;12.768;2023-03-01T19:30:00;8.4;;;3.8;;
49900;SDS011;35789;48.414;12.768;2023-03-01T19:35:00;8.4;;;3.8;;
49900;SDS011;35789;48.414;12.768;2023-03-01T19:40:00;8.4;;;3.8;;
49900;SDS011;35789;48.414;12.768;2023-03-01T19:45:00;8.4;;;3.8;;
49900;SDS011;35789;48.414;12.768;2023-03-01T19:50:00;8.4;;;3.8;;
49900;SDS011;35789;48.414;12.768;2023-03-01T19:55:00;14.2;;;5.5;;
49900;SDS011;35789;48.414;12.768;2023-03-01T20:00:00;14.2;;;5.5;;
49900;SDS011;35789;48.414;12.768;2023-03-01T20:05:00;14.2;;;5.5;;
49900;SDS011;35789;48.414;12.768;2023-03-01T20:10:00;14.2;;;5.5;;
49900;SDS011;35789;48.414;12.768;2023-03-01T20:15:00;14.2;;;5.5;;
49900;SDS011;35789;48.414;12.768;2023-03-01T20:20:00;14.2;;;5.5;;
49900;SDS011;35789;48.414;12.768;2023-03-01T20:25:01;11.7;;;5.7;;
49900;SDS011;35789;48.414;12.768;2023-03-01T20:30:00;11.7;;;5.7;;
49900;SDS011;35789;48.414;12.768;2023-03-01T20:35:00;11.7;;;5.7;;
49900;SDS011;35789;48.414;12.768;2023-03-01T20:40:00;11.7;;;5.7;;
49900;SDS011;35789;48.414;12.768;2023-03-01T20:45:00;11.7;;;5.7;;
49900;SDS011;35789;48.414;12.768;2023-03-01T20:50:00;11.7;;;5.7;;
49900;SDS011;35789;48.414;12.768;2023-03-01T20:55:00;13.3;;;5.8;;
49900;SDS011;35789;48.414;12.768;2023-03-01T21:00:01;13.3;;;5.8;;
49900;SDS011;35789;48.414;12.768;2023-03-01T21:05:00;13.3;;;5.8;;
49900;SDS011;35789;48.414;12.768;2023-03-01T21:10:00;13.3;;;5.8;;
49900;SDS011;35789;48.414;12.768;2023-03-01T21:15:00;13.3;;;5.8;;
49900;SDS011;35789;48.414;12.768;2023-03-01T21:20:00;13.3;;;5.8;;
49900;SDS011;35789;48.414;12.768;2023-03-01T21:25:00;14.9;;;6.3;;
49900;SDS011;35789;48.414;12.768;2023-03-01T21:30:00;14.9;;;6.3;;
49900;SDS011;35789;48.414;12.768;2023-03-01T21:35:00;14.9;;;6.3;;
49900;SDS011;35789;48.414;12.768;2023-03-01T21:40:00;14.9;;;6.3;;
49900;SDS011;35789;48.414;12.768;2023-03-01T21:45:00;14.9;;;6.3;;
49900;SDS011;35789;48.414;12.768;2023-03-01T21:50:00;14.9;;;6.3;;
49900;SDS011;35789;48.414;12.768;2023-03-01T21:55:00;13.0;;;6.0;;
49900;SDS011;35789;48.414;12.768;2023-03-01T22:00:00;13.0;;;6.0;;
49900;SDS011;35789;48.414;12.768;2023-03-01T22:05:00;13.0;;;6.0;;
49900;SDS011;35789;48.414;12.768;2023-03-01T22:10:00;13.0;;;6.0;;
49900;SDS011;35789;48.414;12.768;2023-03-01T22:15:00;13.0;;;6.0;;
49900;SDS011;35789;48.414;12.768;2023-03-01T22:20:00;13.0;;;6.0;;
49900;SDS011;35789;48.414;12.768;2023-03-01T22:25:00;24.1;;;9.8;;
49900;SDS011;35789;48.414;12.768;2023-03-01T22:30:00;24.1;;;9.8;;
49900;SDS011;35789;48.414;12.768;2023-03-01T22:35:00;24.1;;;9.8;;
49900;SDS011;35789;48.414;12.768;2023-03-01T22:40:01;24.1;;;9.8;;
49900;SDS011;35789;48.414;12.768;2023-03-01T22:45:00;24.1;;;9.8;;
49900;SDS011;35789;48.414;12.768;2023-03-01T22:50:00;24.1;;;9.8;;
49900;SDS011;35789;48.414;12.768;2023-03-01T22:55:00;10.9;;;5.5;;
49900;SDS011;35789;48.414;12.768;2023-03-01T23:00:00;10.9;;;5.5;;
49900;SDS011;35789;48.414;12.768;2023-03-01T23:05:00;10.9;;;5.5;;
49900;SDS011;35789;48.414;12.768;2023-03-01T23:10:00;10.9;;;5.5;;
49900;SDS011;35789;48.414;12.768;2023-03-01T23:15:00;10.9;;;5.5;;
49900;SDS011;35789;48.414;12.768;2023-03-01T23:20:00;10.9;;;5.5;;
49900;SDS011;35789;48.414;12.768;2023-03-01T23:25:00;10.2;;;4.9;;
49900;SDS011;35789;48.414;12.768;2023-03-01T23:30:00;10.2;;;4.9;;
49900;SDS011;35789;48.414;12.768;2023-03-01T23:35:00;10.2;;;4.9;;
49900;SDS011;35789;48.414;12.768;2023-03-01T23:40:00;10.2;;;4.9;;
49900;SDS011;35789;48.414;12.768;2023-03-01T23:45:00;10.2;;;4.9;;
49900;SDS011;35789;48.414;12.768;2023-03-01T23:50:00;10.2;;;4.9;;
49900;SDS011;35789;48.414;12.768;2023-03-01T23:55:00;11.8;;;5.3;;
